Time;durP1;ratioP1;P1;durP2;ratioP2;P2;SDS_P1;SDS_P2;PMS_P1;PMS_P2;Temp;Humidity;BMP_temperature;BMP_pressure;BME280_temperature;BME280_humidity;BME280_pressure;Samples;Min_cycle;Max_cycle;Signal;HPM_P1;HPM_P2
2023/06/03 04:00:34;;;;;;;0.98;0.98;;;8.70;99.90;;;;;;5905845;23;21498;-72
2023/06/03 04:03:00;;;;;;;0.63;0.63;;;8.70;99.90;;;;;;4978720;28;20209;-71
2023/06/03 04:05:27;;;;;;;0.65;0.65;;;8.70;99.90;;;;;;4989607;28;20208;-72
2023/06/03 04:07:55;;;;;;;0.82;0.82;;;8.70;99.90;;;;;;4990076;28;20243;-71
2023/06/03 04:10:22;;;;;;;0.45;0.45;;;8.70;99.90;;;;;;4990804;28;20214;-71
2023/06/03 04:12:49;;;;;;;0.73;0.73;;;8.70;99.90;;;;;;4989512;28;20211;-72
2023/06/03 04:15:24;;;;;;;1.10;1.10;;;8.70;99.90;;;;;;4985564;28;20256;-71
2023/06/03 04:17:52;;;;;;;0.85;0.85;;;8.80;99.90;;;;;;4984338;28;20869;-71
2023/06/03 04:20:38;;;;;;;0.70;0.68;;;8.90;99.90;;;;;;4983077;28;20677;-71
2023/06/03 04:23:05;;;;;;;0.40;0.40;;;9.00;99.90;;;;;;4985376;28;20219;-71
2023/06/03 04:25:34;;;;;;;0.43;0.43;;;9.60;99.90;;;;;;4994681;23;20616;-75
2023/06/03 04:28:00;;;;;;;1.73;1.63;;;10.60;99.90;;;;;;4968027;28;20278;-73
2023/06/03 04:30:27;;;;;;;1.13;1.13;;;11.60;99.90;;;;;;4971422;28;20841;-73
2023/06/03 04:32:55;;;;;;;0.40;0.40;;;12.50;99.90;;;;;;4966177;28;21350;-73
2023/06/03 04:35:23;;;;;;;0.60;0.60;;;13.30;99.90;;;;;;4966816;28;20492;-74
2023/06/03 04:37:50;;;;;;;1.63;0.83;;;14.00;99.90;;;;;;4971069;28;20504;-74
2023/06/03 04:40:16;;;;;;;0.73;0.73;;;14.50;99.90;;;;;;4971620;28;20531;-74
2023/06/03 04:42:43;;;;;;;1.17;1.13;;;14.90;99.90;;;;;;4964836;28;20476;-73
2023/06/03 04:45:12;;;;;;;0.40;0.40;;;15.30;99.90;;;;;;4970418;28;20492;-74
2023/06/03 04:47:41;;;;;;;0.50;0.50;;;15.60;99.90;;;;;;4971353;28;20627;-74
2023/06/03 04:50:10;;;;;;;0.50;0.50;;;16.10;99.90;;;;;;4971257;28;20464;-74
2023/06/03 04:52:37;;;;;;;0.87;0.87;;;16.50;99.90;;;;;;4971294;28;20474;-73
2023/06/03 04:55:04;;;;;;;0.40;0.40;;;16.80;99.90;;;;;;4969188;28;20483;-74
2023/06/03 04:57:31;;;;;;;0.43;0.43;;;17.10;99.90;;;;;;4962233;28;20494;-74
2023/06/03 04:59:58;;;;;;;0.60;0.60;;;17.60;99.90;;;;;;4969977;28;20543;-74
2023/06/03 05:02:29;;;;;;;0.60;0.60;;;17.90;99.90;;;;;;4963070;28;20470;-74
2023/06/03 05:04:56;;;;;;;0.50;0.50;;;18.10;99.90;;;;;;4968666;28;20493;-74
2023/06/03 05:07:26;;;;;;;1.33;0.80;;;18.20;99.70;;;;;;4971078;28;20494;-74
2023/06/03 05:09:53;;;;;;;0.77;0.77;;;18.70;99.20;;;;;;4971441;28;20496;-74
2023/06/03 05:12:20;;;;;;;1.27;1.27;;;19.20;98.30;;;;;;4974194;28;20788;-74
2023/06/03 05:14:46;;;;;;;0.73;0.70;;;19.50;97.20;;;;;;4959165;28;20492;-74
2023/06/03 05:17:13;;;;;;;0.80;0.80;;;19.50;96.20;;;;;;4964636;28;20494;-74
2023/06/03 05:19:40;;;;;;;0.53;0.50;;;19.40;96.10;;;;;;4971544;28;20829;-74
2023/06/03 05:22:06;;;;;;;0.63;0.63;;;19.70;95.80;;;;;;4970581;28;20472;-74
2023/06/03 05:24:35;;;;;;;0.53;0.53;;;19.80;94.70;;;;;;4967243;28;20502;-75
2023/06/03 05:27:03;;;;;;;0.70;0.70;;;19.80;94.30;;;;;;4971625;28;20975;-74
2023/06/03 05:29:30;;;;;;;0.57;0.57;;;20.10;94.00;;;;;;4973979;28;20483;-73
2023/06/03 05:31:56;;;;;;;1.80;0.77;;;20.10;93.20;;;;;;4968596;28;20559;-73
2023/06/03 05:34:23;;;;;;;1.03;1.03;;;20.30;93.20;;;;;;4974345;28;20491;-73
2023/06/03 05:36:50;;;;;;;0.40;0.40;;;20.20;92.60;;;;;;4967884;28;21026;-73
2023/06/03 05:39:16;;;;;;;0.73;0.60;;;20.50;93.30;;;;;;4972261;28;20960;-74
2023/06/03 05:41:44;;;;;;;0.50;0.50;;;20.60;92.10;;;;;;4973061;28;20940;-75
2023/06/03 05:44:11;;;;;;;0.40;0.40;;;20.90;92.10;;;;;;4971737;28;20498;-75
2023/06/03 05:46:38;;;;;;;0.60;0.60;;;20.60;91.30;;;;;;4967094;28;20530;-74
2023/06/03 05:49:04;;;;;;;0.53;0.53;;;20.50;91.60;;;;;;4974776;28;20486;-73
2023/06/03 05:51:31;;;;;;;1.60;0.90;;;19.90;91.50;;;;;;4976704;28;20496;-73
2023/06/03 05:53:58;;;;;;;0.50;0.50;;;19.50;91.60;;;;;;4976646;28;20540;-72
2023/06/03 05:56:24;;;;;;;0.40;0.40;;;19.80;90.40;;;;;;4974402;28;20551;-73
2023/06/03 05:58:52;;;;;;;0.60;0.60;;;19.80;90.90;;;;;;4975892;28;20467;-76
2023/06/03 06:01:19;;;;;;;0.47;0.47;;;20.40;91.60;;;;;;4975024;28;20966;-74
2023/06/03 06:03:46;;;;;;;0.37;0.37;;;20.80;90.00;;;;;;4978337;28;20466;-74
2023/06/03 06:06:12;;;;;;;0.60;0.60;;;21.00;86.30;;;;;;4976424;28;20667;-74
2023/06/03 06:08:40;;;;;;;0.73;0.73;;;21.20;86.00;;;;;;4975057;28;20502;-74
2023/06/03 06:11:06;;;;;;;0.40;0.40;;;21.20;82.90;;;;;;4967229;28;20522;-74
2023/06/03 06:13:33;;;;;;;0.33;0.33;;;21.40;80.60;;;;;;4973915;28;20472;-74
2023/06/03 06:16:03;;;;;;;0.50;0.50;;;21.80;79.20;;;;;;4974474;28;20538;-74
2023/06/03 06:18:30;;;;;;;0.30;0.30;;;22.10;78.30;;;;;;4974579;28;20451;-73
2023/06/03 06:20:57;;;;;;;0.53;0.53;;;22.30;77.50;;;;;;4974191;28;20587;-73
2023/06/03 06:23:26;;;;;;;0.43;0.43;;;22.60;73.50;;;;;;4971033;28;20495;-74
2023/06/03 06:25:54;;;;;;;0.63;0.50;;;22.70;71.40;;;;;;4972099;28;20990;-74
2023/06/03 06:28:24;;;;;;;0.20;0.20;;;22.90;71.40;;;;;;4972186;28;20475;-74
2023/06/03 06:30:54;;;;;;;0.40;0.40;;;23.30;68.50;;;;;;4972654;28;20468;-73
2023/06/03 06:33:22;;;;;;;0.30;0.30;;;23.30;67.80;;;;;;4972047;28;20546;-75
2023/06/03 06:35:49;;;;;;;0.37;0.37;;;23.40;66.90;;;;;;4973908;28;20491;-73
2023/06/03 06:38:16;;;;;;;0.73;0.50;;;23.30;64.30;;;;;;4970764;28;20484;-73
2023/06/03 06:40:45;;;;;;;0.40;0.40;;;23.20;61.70;;;;;;4972210;28;20474;-74
2023/06/03 06:43:13;;;;;;;0.20;0.20;;;23.30;62.10;;;;;;4971227;28;20478;-74
2023/06/03 06:45:40;;;;;;;0.30;0.30;;;23.60;60.70;;;;;;4970755;28;20499;-73
2023/06/03 06:48:08;;;;;;;0.30;0.30;;;23.90;57.70;;;;;;4970811;28;20468;-73
2023/06/03 06:50:48;;;;;;;0.30;0.30;;;24.00;59.00;;;;;;4967785;28;20560;-75
2023/06/03 06:53:16;;;;;;;0.27;0.27;;;23.90;56.70;;;;;;4972739;28;20474;-74
2023/06/03 06:55:49;;;;;;;0.20;0.20;;;24.10;54.90;;;;;;4971550;28;20602;-72
2023/06/03 06:58:16;;;;;;;0.30;0.30;;;23.90;55.80;;;;;;4964092;28;20498;-74
2023/06/03 07:00:44;;;;;;;0.50;0.50;;;23.90;54.90;;;;;;4969855;28;20546;-74
2023/06/03 07:03:13;;;;;;;0.20;0.20;;;24.00;54.40;;;;;;4972539;28;20523;-73
2023/06/03 07:05:40;;;;;;;0.20;0.20;;;24.10;54.00;;;;;;4973502;28;20492;-74
2023/06/03 07:08:08;;;;;;;0.33;0.33;;;24.50;54.90;;;;;;4970538;28;20468;-73
2023/06/03 07:10:35;;;;;;;0.33;0.33;;;24.70;53.80;;;;;;4980291;28;21062;-73
2023/06/03 07:13:02;;;;;;;0.33;0.30;;;24.30;52.80;;;;;;4974175;28;20650;-74
2023/06/03 07:15:29;;;;;;;0.23;0.23;;;24.70;53.70;;;;;;4972887;28;20499;-74
2023/06/03 07:17:57;;;;;;;0.30;0.30;;;24.70;53.00;;;;;;4972563;28;20467;-73
2023/06/03 07:20:30;;;;;;;0.20;0.20;;;24.60;52.70;;;;;;4973559;28;20463;-74
2023/06/03 07:22:57;;;;;;;0.20;0.20;;;24.60;52.90;;;;;;4973052;28;20503;-74
2023/06/03 07:25:35;;;;;;;0.30;0.30;;;24.50;52.30;;;;;;4972982;28;20487;-74
2023/06/03 07:28:04;;;;;;;0.20;0.20;;;24.70;52.40;;;;;;4973400;28;20459;-74
2023/06/03 07:30:35;;;;;;;0.40;0.40;;;25.10;52.30;;;;;;4973615;28;20503;-73
2023/06/03 07:33:04;;;;;;;0.40;0.40;;;25.20;51.80;;;;;;4973241;28;20491;-74
2023/06/03 07:35:31;;;;;;;0.30;0.30;;;25.40;51.70;;;;;;4973635;28;20492;-71
2023/06/03 07:37:57;;;;;;;0.20;0.20;;;25.60;51.00;;;;;;4972637;28;20467;-73
2023/06/03 07:40:35;;;;;;;0.23;0.23;;;25.60;50.50;;;;;;4970994;28;20467;-74
2023/06/03 07:43:01;;;;;;;0.20;0.20;;;25.30;51.10;;;;;;4971186;28;20610;-74
2023/06/03 07:45:28;;;;;;;0.30;0.30;;;24.70;51.00;;;;;;4968407;28;20531;-75
2023/06/03 07:47:57;;;;;;;0.20;0.20;;;24.30;51.80;;;;;;4972559;28;20518;-74
2023/06/03 07:50:26;;;;;;;0.20;0.20;;;24.40;51.90;;;;;;4973275;28;20620;-74
2023/06/03 07:53:00;;;;;;;0.30;0.30;;;24.60;52.10;;;;;;4972037;28;20479;-74
2023/06/03 07:55:27;;;;;;;0.30;0.30;;;24.00;52.20;;;;;;4972231;28;20488;-75
2023/06/03 07:57:55;;;;;;;0.20;0.20;;;24.20;52.70;;;;;;4969832;28;20650;-75
2023/06/03 08:00:21;;;;;;;1.10;0.30;;;24.40;53.10;;;;;;4971660;28;20483;-74
2023/06/03 08:02:49;;;;;;;0.30;0.30;;;24.40;53.40;;;;;;4971693;28;20500;-74
2023/06/03 08:05:16;;;;;;;0.20;0.20;;;24.20;53.10;;;;;;4972577;28;20475;-73
2023/06/03 08:07:45;;;;;;;0.20;0.20;;;23.90;53.70;;;;;;4973038;28;20490;-73
2023/06/03 08:10:22;;;;;;;0.97;0.97;;;23.90;54.00;;;;;;4972938;28;20525;-73
2023/06/03 08:12:50;;;;;;;0.30;0.30;;;23.90;54.30;;;;;;4963194;28;20473;-73
2023/06/03 08:15:26;;;;;;;0.30;0.30;;;23.60;54.70;;;;;;4965376;28;21078;-73
2023/06/03 08:17:53;;;;;;;0.97;0.40;;;23.00;55.10;;;;;;4972999;28;20506;-73
2023/06/03 08:20:24;;;;;;;0.20;0.20;;;22.90;55.70;;;;;;4973273;28;20471;-73
2023/06/03 08:22:51;;;;;;;0.33;0.33;;;22.40;56.00;;;;;;4972509;28;20463;-73
2023/06/03 08:25:18;;;;;;;0.40;0.40;;;21.90;56.60;;;;;;4972764;28;21031;-74
2023/06/03 08:27:45;;;;;;;0.20;0.20;;;21.40;57.50;;;;;;4972997;28;20468;-72
2023/06/03 08:30:13;;;;;;;0.33;0.33;;;21.30;57.90;;;;;;4966851;28;20491;-72
2023/06/03 08:32:42;;;;;;;0.43;0.43;;;21.20;57.50;;;;;;4972572;28;20466;-73
2023/06/03 08:35:11;;;;;;;0.40;0.40;;;21.40;57.70;;;;;;4972870;28;20981;-73
2023/06/03 08:37:38;;;;;;;0.30;0.30;;;21.70;57.70;;;;;;4974362;28;20550;-73
2023/06/03 08:40:09;;;;;;;0.40;0.40;;;21.60;55.90;;;;;;4972642;28;20460;-72
2023/06/03 08:42:41;;;;;;;0.50;0.50;;;21.10;56.30;;;;;;4969742;28;20473;-72
2023/06/03 08:45:09;;;;;;;0.20;0.20;;;20.50;57.60;;;;;;4969615;28;20509;-73
2023/06/03 08:47:47;;;;;;;1.43;0.40;;;20.50;57.90;;;;;;4969715;28;20844;-72
2023/06/03 08:50:17;;;;;;;0.40;0.40;;;20.20;58.20;;;;;;4971772;28;20541;-73
2023/06/03 08:52:46;;;;;;;0.33;0.33;;;20.70;58.20;;;;;;4971631;28;20478;-73
2023/06/03 08:55:15;;;;;;;0.23;0.23;;;20.70;57.00;;;;;;4971127;28;20489;-72
2023/06/03 08:57:46;;;;;;;0.30;0.30;;;20.30;56.90;;;;;;4971918;28;20465;-72
2023/06/03 09:00:18;;;;;;;0.40;0.40;;;20.30;57.00;;;;;;4971507;28;20465;-72
2023/06/03 09:02:46;;;;;;;0.40;0.40;;;20.20;57.90;;;;;;4967949;28;20503;-73
2023/06/03 09:05:13;;;;;;;0.33;0.33;;;20.50;57.60;;;;;;4971861;28;20492;-72
2023/06/03 09:07:41;;;;;;;1.70;0.50;;;20.60;58.90;;;;;;4971586;28;20524;-72
2023/06/03 09:10:09;;;;;;;0.87;0.30;;;20.70;56.80;;;;;;4971820;28;20545;-73
2023/06/03 09:12:37;;;;;;;0.63;0.40;;;20.50;56.70;;;;;;4970876;28;20476;-73
2023/06/03 09:15:05;;;;;;;0.40;0.40;;;20.40;57.10;;;;;;4971764;28;20495;-73
2023/06/03 09:17:32;;;;;;;0.37;0.37;;;20.20;56.70;;;;;;4971758;28;20955;-73
2023/06/03 09:20:02;;;;;;;0.23;0.23;;;20.10;57.00;;;;;;4971226;28;20537;-73
2023/06/03 09:22:29;;;;;;;0.30;0.30;;;20.00;58.00;;;;;;4972019;28;20492;-73
2023/06/03 09:24:56;;;;;;;0.20;0.20;;;19.80;57.70;;;;;;4971947;28;20506;-73
2023/06/03 09:27:23;;;;;;;0.33;0.33;;;19.30;57.50;;;;;;4971054;28;20608;-73
2023/06/03 09:29:50;;;;;;;0.20;0.20;;;18.90;59.10;;;;;;4971626;28;20492;-73
2023/06/03 09:32:17;;;;;;;0.37;0.37;;;19.00;59.60;;;;;;4971524;28;20460;-73
2023/06/03 09:34:44;;;;;;;0.30;0.30;;;19.10;58.20;;;;;;4969050;28;20495;-74
2023/06/03 09:37:13;;;;;;;0.30;0.30;;;18.80;57.60;;;;;;4971598;28;20471;-74
2023/06/03 09:39:40;;;;;;;0.30;0.30;;;18.80;58.60;;;;;;4972062;28;20464;-74
2023/06/03 09:42:07;;;;;;;0.50;0.50;;;18.60;58.00;;;;;;4963511;28;20473;-74
2023/06/03 09:44:42;;;;;;;0.23;0.23;;;18.40;59.00;;;;;;4958471;28;20850;-74
2023/06/03 09:47:09;;;;;;;0.23;0.23;;;18.40;59.50;;;;;;4972309;28;20467;-73
2023/06/03 09:49:36;;;;;;;0.63;0.63;;;18.60;59.80;;;;;;4962483;28;20464;-74
2023/06/03 09:52:07;;;;;;;0.30;0.30;;;18.70;58.50;;;;;;4972149;28;20515;-74
2023/06/03 09:54:35;;;;;;;0.47;0.47;;;18.60;58.90;;;;;;4972290;28;20582;-74
2023/06/03 09:57:10;;;;;;;0.20;0.20;;;18.60;59.80;;;;;;4972487;28;20642;-75
2023/06/03 09:59:37;;;;;;;0.30;0.30;;;18.50;59.30;;;;;;4971594;28;20469;-74
2023/06/03 10:02:11;;;;;;;0.33;0.33;;;18.50;59.30;;;;;;4972561;28;20460;-74
2023/06/03 10:04:39;;;;;;;0.20;0.20;;;18.40;58.20;;;;;;4972527;28;20531;-72
2023/06/03 10:07:11;;;;;;;0.27;0.27;;;18.40;58.30;;;;;;4970733;28;20464;-72
2023/06/03 10:09:41;;;;;;;0.30;0.30;;;18.30;57.90;;;;;;4963061;28;20947;-72
2023/06/03 10:12:10;;;;;;;0.20;0.20;;;18.40;58.30;;;;;;4971353;28;20472;-74
2023/06/03 10:14:45;;;;;;;0.30;0.30;;;18.50;58.00;;;;;;4968580;28;20625;-74
2023/06/03 10:17:14;;;;;;;0.53;0.53;;;18.60;57.50;;;;;;4972545;28;21020;-72
2023/06/03 10:19:43;;;;;;;0.20;0.20;;;18.60;57.60;;;;;;4971705;28;20464;-73
2023/06/03 10:22:12;;;;;;;0.30;0.30;;;18.70;57.40;;;;;;4971591;28;20885;-73
2023/06/03 10:24:42;;;;;;;0.43;0.37;;;18.90;57.80;;;;;;4993195;23;20518;-71
2023/06/03 10:27:09;;;;;;;0.30;0.30;;;18.90;58.00;;;;;;4986918;28;20471;-71
2023/06/03 10:29:36;;;;;;;0.30;0.30;;;18.90;57.50;;;;;;4990096;28;21028;-71
2023/06/03 10:32:05;;;;;;;0.97;0.20;;;18.70;55.80;;;;;;4988644;28;20517;-71
2023/06/03 10:34:35;;;;;;;0.40;0.40;;;18.70;57.60;;;;;;4987228;28;20467;-71
2023/06/03 10:37:05;;;;;;;0.30;0.30;;;18.80;56.90;;;;;;4968591;28;20969;-71
2023/06/03 10:39:33;;;;;;;3.63;0.40;;;18.60;55.40;;;;;;4967088;28;21205;-71
2023/06/03 10:42:03;;;;;;;0.20;0.20;;;18.60;56.40;;;;;;4966039;28;20972;-71
2023/06/03 10:44:30;;;;;;;0.50;0.50;;;18.70;56.70;;;;;;4973480;28;20974;-73
2023/06/03 10:47:02;;;;;;;0.30;0.30;;;18.90;57.10;;;;;;4964010;28;20468;-71
2023/06/03 10:49:32;;;;;;;0.30;0.30;;;19.10;56.30;;;;;;4974189;28;20518;-72
2023/06/03 10:52:26;;;;;;;0.20;0.20;;;19.10;56.30;;;;;;4966690;28;20492;-71
2023/06/03 10:55:00;;;;;;;0.20;0.20;;;19.00;54.60;;;;;;4965152;28;20487;-72
2023/06/03 10:57:37;;;;;;;0.40;0.30;;;19.00;55.20;;;;;;4973906;28;20455;-71
2023/06/03 11:00:05;;;;;;;0.20;0.20;;;18.70;55.30;;;;;;4961954;28;20809;-71
2023/06/03 11:03:05;;;;;;;0.20;0.20;;;18.70;55.20;;;;;;4973529;28;20838;-70
2023/06/03 11:05:31;;;;;;;0.30;0.30;;;18.70;63.30;;;;;;4971464;28;20498;-71
2023/06/03 11:07:58;;;;;;;0.30;0.30;;;19.10;59.20;;;;;;4967470;28;20786;-70
2023/06/03 11:10:44;;;;;;;0.30;0.30;;;19.00;57.70;;;;;;4963429;28;20561;-72
2023/06/03 11:13:39;;;;;;;0.20;0.20;;;19.20;57.10;;;;;;4973398;28;20463;-72
2023/06/03 11:16:05;;;;;;;0.37;0.37;;;19.20;55.50;;;;;;4968782;28;20944;-72
2023/06/03 11:18:32;;;;;;;0.30;0.30;;;19.10;56.10;;;;;;4967652;28;20846;-72
2023/06/03 11:20:59;;;;;;;0.10;0.10;;;19.20;56.60;;;;;;4972700;28;20467;-73
2023/06/03 11:23:45;;;;;;;0.27;0.27;;;19.40;57.30;;;;;;4964454;28;20491;-73
2023/06/03 11:26:31;;;;;;;0.30;0.30;;;19.40;56.20;;;;;;4972822;28;20635;-72
2023/06/03 11:29:00;;;;;;;0.27;0.27;;;19.60;55.40;;;;;;4965308;28;20467;-72
2023/06/03 11:31:28;;;;;;;0.20;0.20;;;19.70;55.80;;;;;;4967615;28;20514;-72
2023/06/03 11:34:20;;;;;;;0.23;0.23;;;19.50;54.80;;;;;;4957235;28;20475;-72
2023/06/03 11:36:47;;;;;;;0.30;0.30;;;19.60;55.10;;;;;;4955377;28;20492;-72
2023/06/03 11:39:15;;;;;;;0.20;0.20;;;19.50;55.40;;;;;;4963483;28;20468;-72
2023/06/03 11:42:01;;;;;;;0.30;0.30;;;19.40;55.80;;;;;;4956899;28;20541;-73
2023/06/03 11:44:29;;;;;;;0.20;0.20;;;19.50;55.10;;;;;;4967438;28;20941;-72
2023/06/03 11:46:56;;;;;;;0.33;0.33;;;19.60;56.20;;;;;;4966403;28;20530;-72
2023/06/03 11:49:23;;;;;;;0.43;0.43;;;19.70;55.50;;;;;;4973194;28;20530;-72
2023/06/03 11:51:52;;;;;;;0.30;0.30;;;19.90;55.10;;;;;;4965347;28;20487;-72
2023/06/03 11:54:21;;;;;;;0.47;0.47;;;19.90;54.70;;;;;;4973721;28;20459;-72
2023/06/03 11:56:48;;;;;;;0.30;0.30;;;19.90;55.10;;;;;;4966262;28;20488;-71
2023/06/03 11:59:18;;;;;;;0.20;0.20;;;20.10;54.70;;;;;;4972346;28;20566;-71
2023/06/03 12:01:56;;;;;;;0.20;0.20;;;20.20;54.30;;;;;;4966703;28;20891;-72
2023/06/03 12:04:23;;;;;;;0.43;0.43;;;20.20;52.90;;;;;;4966516;28;20542;-72
2023/06/03 12:06:50;;;;;;;1.07;0.47;;;20.00;52.20;;;;;;4975516;28;20543;-71
2023/06/03 12:09:18;;;;;;;0.30;0.30;;;20.00;53.40;;;;;;4973314;28;20456;-72
2023/06/03 12:11:44;;;;;;;0.40;0.40;;;20.20;53.40;;;;;;4964235;28;20574;-71
2023/06/03 12:14:11;;;;;;;1.70;0.30;;;20.20;52.50;;;;;;4972986;28;20472;-72
2023/06/03 12:16:38;;;;;;;0.30;0.30;;;20.10;52.90;;;;;;4965631;28;20595;-70
2023/06/03 12:19:07;;;;;;;0.20;0.20;;;20.10;51.40;;;;;;4966949;28;20476;-70
2023/06/03 12:21:36;;;;;;;0.30;0.30;;;20.10;52.10;;;;;;4972169;28;20467;-70
2023/06/03 12:24:09;;;;;;;0.60;0.40;;;20.20;52.80;;;;;;4971258;28;20471;-72
2023/06/03 12:26:37;;;;;;;0.27;0.27;;;20.40;52.40;;;;;;4967253;28;20968;-71
2023/06/03 12:29:08;;;;;;;0.67;0.43;;;20.20;51.60;;;;;;4972520;28;20974;-71
2023/06/03 12:31:35;;;;;;;0.60;0.40;;;20.20;51.60;;;;;;4973157;28;21018;-70
2023/06/03 12:34:02;;;;;;;2.27;0.27;;;20.30;52.60;;;;;;4970137;28;20555;-70
2023/06/03 12:36:48;;;;;;;0.20;0.20;;;20.20;53.30;;;;;;4972363;28;20503;-71
2023/06/03 12:39:15;;;;;;;0.20;0.20;;;20.30;53.70;;;;;;4969597;28;20813;-72
2023/06/03 12:41:49;;;;;;;0.20;0.20;;;20.30;53.80;;;;;;4967038;28;20830;-71
2023/06/03 12:44:16;;;;;;;0.20;0.20;;;20.20;52.50;;;;;;4965187;28;20479;-71
2023/06/03 12:46:43;;;;;;;0.20;0.20;;;20.30;52.60;;;;;;4971762;28;20487;-71
2023/06/03 12:49:13;;;;;;;0.80;0.30;;;20.30;52.50;;;;;;4974329;28;20468;-71
2023/06/03 12:51:39;;;;;;;0.40;0.40;;;20.30;53.10;;;;;;4976782;28;20850;-71
2023/06/03 12:54:07;;;;;;;0.47;0.47;;;20.40;52.50;;;;;;4975416;28;20529;-71
2023/06/03 12:56:35;;;;;;;0.30;0.30;;;20.30;51.60;;;;;;4964396;28;20547;-72
2023/06/03 12:59:03;;;;;;;0.20;0.20;;;20.30;52.50;;;;;;4967377;28;20478;-72
2023/06/03 13:01:30;;;;;;;0.30;0.30;;;20.50;52.40;;;;;;4963903;28;20471;-72
2023/06/03 13:03:57;;;;;;;0.53;0.53;;;20.50;51.90;;;;;;4961223;28;20504;-72
2023/06/03 13:06:24;;;;;;;0.20;0.20;;;20.60;52.50;;;;;;4965727;28;20487;-72
2023/06/03 13:08:51;;;;;;;0.37;0.37;;;20.90;52.50;;;;;;4963819;28;21053;-71
2023/06/03 13:11:20;;;;;;;0.10;0.10;;;21.00;51.60;;;;;;4968372;28;20546;-70
2023/06/03 13:13:46;;;;;;;0.30;0.30;;;20.90;51.70;;;;;;4970688;28;20460;-72
2023/06/03 13:16:13;;;;;;;0.40;0.40;;;20.80;50.90;;;;;;4963395;28;20879;-72
2023/06/03 13:18:41;;;;;;;0.30;0.30;;;20.90;51.60;;;;;;4962246;28;20504;-72
2023/06/03 13:21:07;;;;;;;0.20;0.20;;;20.80;52.10;;;;;;4964739;28;20471;-71
2023/06/03 13:23:34;;;;;;;0.30;0.30;;;20.90;51.40;;;;;;4963305;28;20472;-72
2023/06/03 13:26:01;;;;;;;0.37;0.37;;;20.80;51.80;;;;;;4960728;28;20499;-72
2023/06/03 13:28:29;;;;;;;0.57;0.40;;;20.80;52.20;;;;;;4957669;28;20575;-72
2023/06/03 13:30:56;;;;;;;0.30;0.30;;;20.90;52.50;;;;;;4968756;28;20483;-72
2023/06/03 13:33:23;;;;;;;0.20;0.20;;;21.10;52.20;;;;;;4971769;28;20487;-72
2023/06/03 13:35:50;;;;;;;0.20;0.20;;;21.10;51.10;;;;;;4959409;28;20966;-72
2023/06/03 13:38:16;;;;;;;0.67;0.20;;;21.10;51.20;;;;;;4957828;28;20523;-73
2023/06/03 13:40:43;;;;;;;0.40;0.40;;;21.10;51.40;;;;;;4954278;28;20502;-72
2023/06/03 13:43:10;;;;;;;0.30;0.30;;;21.10;52.10;;;;;;4956509;28;20583;-72
2023/06/03 13:45:38;;;;;;;0.40;0.40;;;21.30;51.40;;;;;;4964135;28;20487;-72
2023/06/03 13:48:04;;;;;;;0.33;0.30;;;21.40;50.90;;;;;;4955384;28;20474;-72
2023/06/03 13:50:31;;;;;;;0.30;0.30;;;21.20;50.60;;;;;;4955287;28;20531;-71
2023/06/03 13:52:58;;;;;;;0.30;0.30;;;21.20;50.50;;;;;;4956614;28;20491;-72
2023/06/03 13:55:25;;;;;;;0.30;0.30;;;20.90;50.80;;;;;;4965778;28;20547;-72
2023/06/03 13:57:51;;;;;;;0.23;0.23;;;20.70;51.00;;;;;;4960044;28;20477;-72
2023/06/03 14:00:18;;;;;;;0.20;0.20;;;20.80;51.00;;;;;;4958843;28;20512;-72
2023/06/03 14:02:46;;;;;;;0.30;0.30;;;21.00;51.20;;;;;;4956973;28;20477;-72
2023/06/03 14:05:13;;;;;;;0.23;0.20;;;21.10;51.70;;;;;;4958156;28;20491;-72
2023/06/03 14:07:40;;;;;;;0.20;0.20;;;21.10;51.90;;;;;;4964980;28;20953;-72
2023/06/03 14:10:09;;;;;;;0.30;0.30;;;21.30;52.10;;;;;;4967546;28;20478;-72
2023/06/03 14:12:35;;;;;;;0.40;0.40;;;21.40;51.10;;;;;;4972665;28;20510;-72
2023/06/03 14:15:02;;;;;;;0.37;0.27;;;21.30;50.60;;;;;;4973734;28;20490;-73
2023/06/03 14:17:29;;;;;;;0.20;0.20;;;21.30;51.40;;;;;;4973177;28;20518;-72
2023/06/03 14:19:57;;;;;;;0.97;0.30;;;21.30;51.20;;;;;;4971581;28;20468;-72
2023/06/03 14:22:24;;;;;;;0.37;0.30;;;21.10;51.50;;;;;;4960532;28;20526;-73
2023/06/03 14:24:50;;;;;;;0.23;0.23;;;21.20;52.40;;;;;;4966649;28;21126;-73
2023/06/03 14:27:18;;;;;;;0.20;0.20;;;21.40;51.90;;;;;;4971915;28;20502;-72
2023/06/03 14:29:45;;;;;;;0.30;0.30;;;21.60;52.10;;;;;;4955226;28;20992;-73
2023/06/03 14:32:11;;;;;;;0.27;0.27;;;21.60;51.00;;;;;;4956554;28;20571;-73
2023/06/03 14:34:38;;;;;;;0.60;0.60;;;21.40;50.60;;;;;;4967748;28;20465;-72
2023/06/03 14:37:07;;;;;;;0.30;0.30;;;21.40;51.30;;;;;;4963963;28;20476;-72
2023/06/03 14:39:33;;;;;;;0.20;0.20;;;21.40;51.00;;;;;;4972283;28;20547;-73
2023/06/03 14:42:00;;;;;;;0.30;0.30;;;21.60;51.20;;;;;;4964556;28;20496;-73
2023/06/03 14:44:27;;;;;;;0.50;0.50;;;21.70;49.50;;;;;;4972384;28;20463;-74
2023/06/03 14:46:54;;;;;;;0.30;0.30;;;21.60;50.20;;;;;;4969476;28;20477;-74
2023/06/03 14:49:23;;;;;;;0.30;0.30;;;21.60;50.50;;;;;;4956640;28;20460;-75
2023/06/03 14:51:50;;;;;;;0.30;0.30;;;21.60;51.00;;;;;;4962794;28;20491;-74
2023/06/03 14:54:19;;;;;;;1.20;0.63;;;21.70;50.60;;;;;;4958555;28;20491;-74
2023/06/03 14:56:46;;;;;;;0.33;0.33;;;21.90;51.10;;;;;;4961259;28;20495;-74
2023/06/03 14:59:12;;;;;;;0.30;0.30;;;22.10;50.10;;;;;;4974522;28;20467;-75
2023/06/03 15:01:40;;;;;;;0.23;0.23;;;22.10;50.00;;;;;;4967384;28;20476;-74
2023/06/03 15:04:07;;;;;;;0.37;0.37;;;22.10;49.60;;;;;;4963860;28;20476;-74
2023/06/03 15:06:33;;;;;;;0.17;0.17;;;22.20;50.60;;;;;;4971419;28;20570;-73
2023/06/03 15:09:00;;;;;;;0.37;0.37;;;22.10;50.40;;;;;;4968172;28;20538;-71
2023/06/03 15:11:28;;;;;;;0.23;0.23;;;21.90;50.00;;;;;;4963836;28;20529;-70
2023/06/03 15:13:55;;;;;;;0.37;0.37;;;21.70;50.10;;;;;;4965465;28;20476;-71
2023/06/03 15:16:22;;;;;;;0.50;0.50;;;21.60;50.10;;;;;;4968414;28;20583;-72
2023/06/03 15:18:49;;;;;;;0.20;0.20;;;21.40;50.30;;;;;;4962129;28;20468;-73
2023/06/03 15:21:15;;;;;;;0.40;0.40;;;21.30;51.10;;;;;;4953769;28;20488;-71
2023/06/03 15:23:42;;;;;;;0.30;0.30;;;21.40;52.00;;;;;;4960276;28;20528;-73
2023/06/03 15:26:09;;;;;;;1.93;0.30;;;21.60;52.10;;;;;;4964329;28;20503;-72
2023/06/03 15:28:37;;;;;;;0.20;0.20;;;21.70;51.30;;;;;;4964758;28;20551;-71
2023/06/03 15:31:04;;;;;;;1.03;0.50;;;21.70;52.00;;;;;;4962852;28;20467;-70
2023/06/03 15:33:30;;;;;;;2.10;0.70;;;21.60;52.20;;;;;;4958812;28;20649;-72
2023/06/03 15:35:57;;;;;;;2.00;1.90;;;21.60;52.30;;;;;;4960785;28;20488;-70
2023/06/03 15:38:24;;;;;;;0.20;0.20;;;21.60;51.90;;;;;;4960655;28;20799;-71
2023/06/03 15:40:51;;;;;;;0.30;0.30;;;21.70;50.50;;;;;;4956843;28;20526;-71
2023/06/03 15:43:21;;;;;;;0.30;0.30;;;21.70;50.10;;;;;;4949545;28;20475;-71
2023/06/03 15:45:49;;;;;;;1.03;0.50;;;21.90;51.30;;;;;;4946767;28;20499;-71
2023/06/03 15:48:15;;;;;;;0.40;0.40;;;21.80;50.60;;;;;;4951505;28;20477;-70
2023/06/03 15:50:42;;;;;;;0.30;0.30;;;21.60;51.30;;;;;;4954364;28;20476;-71
2023/06/03 15:53:09;;;;;;;0.40;0.40;;;21.50;52.10;;;;;;4951356;28;20820;-71
2023/06/03 15:55:36;;;;;;;0.27;0.27;;;21.50;51.60;;;;;;4951747;28;21110;-71
2023/06/03 15:58:03;;;;;;;0.27;0.27;;;21.30;51.80;;;;;;4960843;28;20488;-71
2023/06/03 16:00:29;;;;;;;0.60;0.60;;;21.30;51.90;;;;;;4963244;28;20475;-71
2023/06/03 16:02:58;;;;;;;0.50;0.50;;;21.50;52.70;;;;;;4954737;28;20560;-71
2023/06/03 16:05:25;;;;;;;0.30;0.30;;;21.70;51.70;;;;;;4950161;28;20492;-71
2023/06/03 16:07:51;;;;;;;0.20;0.20;;;21.70;51.40;;;;;;4965600;28;20849;-71
2023/06/03 16:10:18;;;;;;;0.30;0.30;;;21.50;51.60;;;;;;4967542;28;20471;-71
2023/06/03 16:12:45;;;;;;;0.33;0.33;;;21.40;51.90;;;;;;4965700;28;20492;-71
2023/06/03 16:15:12;;;;;;;0.30;0.30;;;21.20;51.70;;;;;;4968086;28;20546;-71
2023/06/03 16:17:39;;;;;;;0.30;0.30;;;21.20;52.00;;;;;;4966784;28;20468;-71
2023/06/03 16:20:08;;;;;;;0.77;0.20;;;21.30;52.90;;;;;;4959709;28;20469;-71
2023/06/03 16:22:35;;;;;;;0.20;0.20;;;21.30;52.60;;;;;;4968870;28;20987;-71
2023/06/03 16:25:03;;;;;;;0.37;0.37;;;21.40;52.30;;;;;;4970679;28;20510;-71
2023/06/03 16:27:30;;;;;;;0.23;0.23;;;21.40;52.50;;;;;;4960091;28;20539;-70
2023/06/03 16:29:56;;;;;;;0.50;0.50;;;21.30;51.00;;;;;;4959129;28;20480;-71
2023/06/03 16:32:23;;;;;;;0.60;0.60;;;21.30;51.90;;;;;;4963944;28;20566;-71
2023/06/03 16:34:50;;;;;;;0.40;0.40;;;21.40;50.90;;;;;;4958922;28;20491;-71
2023/06/03 16:37:18;;;;;;;0.40;0.40;;;21.40;50.90;;;;;;4966982;28;20476;-71
2023/06/03 16:39:44;;;;;;;0.50;0.50;;;21.40;51.40;;;;;;4959175;28;20519;-71
2023/06/03 16:42:11;;;;;;;0.30;0.30;;;21.40;51.20;;;;;;4958071;28;20473;-71
2023/06/03 16:44:38;;;;;;;0.60;0.60;;;21.40;51.70;;;;;;4964351;28;20529;-71
2023/06/03 16:47:05;;;;;;;0.30;0.30;;;21.20;51.70;;;;;;4954315;28;20475;-72
2023/06/03 16:49:32;;;;;;;0.20;0.20;;;20.90;51.80;;;;;;4968863;28;20468;-72
2023/06/03 16:51:58;;;;;;;0.30;0.27;;;20.80;52.10;;;;;;4970977;28;20483;-72
2023/06/03 16:54:26;;;;;;;0.33;0.33;;;20.80;53.10;;;;;;4964022;28;20464;-72